For water level readings from Victoria harbour, visit our Tides page.

DISCLAIMER: Although GVHA takes care to produce accurate readings from Ogden Point, the weather information on this site is raw data fed directly from sensors. It does not go through the same quality control processes used by professional weather services, and should not be relied on as a sole source of weather information for Victoria harbour.

In-depth weather values from Victoria Harbour can be found on the Environment Canada website.

Location: Ogden Point Breakwater

Current time: Apr 23, 2019 5:01 AM GMT | Apr 22, 2019 10:01 PM

Last Hour Last 3 Hours Last 6 Hours Last 12 Hours
Time Peak Wind Speed Avg Speed Avg Direction Avg Air Temp Avg Dew Point Avg Humidity
Apr 22, 2019 10:00 PM 5.4 knots 3.3 knots 16° True 9.7° C / 49.4° F 7.9° C / 45.8° F 88.5%
Apr 22, 2019 09:50 PM 5.8 knots 3.6 knots 18° True 9.7° C / 49.4° F 7.8° C / 45.6° F 88%
Apr 22, 2019 09:30 PM 4.1 knots 2.7 knots 23° True 9.7° C / 49.4° F 7.7° C / 45.4° F 87.1%
Apr 22, 2019 09:20 PM 4 knots 2.4 knots 4° True 9.7° C / 49.4° F 7.6° C / 45.2° F 86.8%
Apr 22, 2019 09:10 PM 3.3 knots 1.3 knots 24° True 9.7° C / 49.4° F 7.5° C / 45° F 86.6%
Apr 22, 2019 09:00 PM 3.1 knots 1.8 knots 32° True 9.6° C / 49.2° F 7.5° C / 45° F 86.3%
Apr 22, 2019 08:50 PM 3.7 knots 1.4 knots 40° True 9.6° C / 49.2° F 7.4° C / 44.8° F 85.8%
Apr 22, 2019 08:40 PM 4.2 knots 2.8 knots 30° True 9.6° C / 49.2° F 7.2° C / 44.4° F 84.9%
Apr 22, 2019 08:30 PM 4.9 knots 3.5 knots 36° True 9.7° C / 49.4° F 7.2° C / 44.4° F 84.3%
Apr 22, 2019 08:20 PM 4.8 knots 3.2 knots 27° True 9.7° C / 49.4° F 7.1° C / 44.2° F 83.9%
Apr 22, 2019 08:10 PM 5.7 knots 3.9 knots 25° True 9.8° C / 49.6° F 7.1° C / 44.2° F 83.4%
Apr 22, 2019 08:00 PM 6.1 knots 3.9 knots 15° True 9.8° C / 49.6° F 7° C / 44° F 82.8%
Apr 22, 2019 07:50 PM 4.2 knots 3.1 knots 359° True 9.7° C / 49.4° F 6.9° C / 43.8° F 82.7%
Apr 22, 2019 07:40 PM 4.9 knots 3.5 knots 20° True 9.5° C / 49° F 6.8° C / 43.6° F 83.4%
Apr 22, 2019 07:30 PM 5.1 knots 4.2 knots 328° True 9.1° C / 48.2° F 7° C / 44° F 86.4%
Apr 22, 2019 07:20 PM 6.4 knots 5.2 knots 261° True 8.9° C / 47.8° F 7° C / 44° F 87.9%
Apr 22, 2019 07:10 PM 4.9 knots 2.7 knots 245° True 9.1° C / 48.2° F 7° C / 44° F 86.9%
Apr 22, 2019 07:00 PM 2.1 knots 1 knots 184° True 9.2° C / 48.4° F 6.8° C / 43.6° F 85.2%
Apr 22, 2019 06:50 PM 2.4 knots 1.4 knots 177° True 9.1° C / 48.2° F 6.9° C / 43.8° F 86.1%
Apr 22, 2019 06:40 PM 7.5 knots 4.7 knots 63° True 9° C / 48° F 6.8° C / 43.6° F 86.4%
Apr 22, 2019 06:30 PM 9.4 knots 7.5 knots 68° True 8.9° C / 47.8° F 6.8° C / 43.6° F 86.3%
Apr 22, 2019 06:20 PM 9.8 knots 7.4 knots 73° True 8.9° C / 47.8° F 6.9° C / 43.8° F 87.6%
Apr 22, 2019 06:10 PM 9.1 knots 5.8 knots 75° True 8.6° C / 47.2° F 7.5° C / 45° F 92.7%
Apr 22, 2019 06:00 PM 3.9 knots 2.1 knots 102° True 8.5° C / 47° F 7.6° C / 45.2° F 93.9%
Apr 22, 2019 05:50 PM 1.1 knots 0.3 knots 108° True 8.5° C / 47° F 7.6° C / 45.2° F 94%
Apr 22, 2019 05:40 PM 3.1 knots 2.3 knots 123° True 8.4° C / 46.8° F 7.5° C / 45° F 94%
Apr 22, 2019 05:30 PM 2.8 knots 2.1 knots 146° True 8.4° C / 46.8° F 7.5° C / 45° F 94.1%
Apr 22, 2019 05:20 PM 2.3 knots 1.8 knots 201° True 8.4° C / 46.8° F 7.6° C / 45.2° F 94.5%
Apr 22, 2019 05:10 PM 2.5 knots 2 knots 219° True 8.3° C / 46.6° F 7.6° C / 45.2° F 94.8%
Apr 22, 2019 05:00 PM 2.8 knots 2.5 knots 208° True 8.3° C / 46.6° F 7.5° C / 45° F 95%
Apr 22, 2019 04:50 PM 3.4 knots 2.7 knots 213° True 8.2° C / 46.4° F 7.5° C / 45° F 95.1%
Apr 22, 2019 04:40 PM 4.4 knots 3.7 knots 219° True 8.2° C / 46.4° F 7.5° C / 45° F 95.1%
Apr 22, 2019 04:30 PM 4.3 knots 3 knots 221° True 8.3° C / 46.6° F 7.5° C / 45° F 95%
Apr 22, 2019 04:20 PM 3.1 knots 2.4 knots 224° True 8.2° C / 46.4° F 7.5° C / 45° F 95%
Apr 22, 2019 04:10 PM 3.9 knots 3.3 knots 224° True 8.2° C / 46.4° F 7.5° C / 45° F 95%
Apr 22, 2019 04:00 PM 6 knots 4.6 knots 217° True 8.2° C / 46.4° F 7.4° C / 44.8° F 94.9%
Apr 22, 2019 03:50 PM 6.2 knots 5.5 knots 189° True 8.2° C / 46.4° F 7.4° C / 44.8° F 94.7%
Apr 22, 2019 03:40 PM 6.7 knots 6 knots 171° True 8.2° C / 46.4° F 7.3° C / 44.6° F 94.5%
Apr 22, 2019 03:30 PM 7 knots 5.9 knots 171° True 8.1° C / 46.2° F 7.3° C / 44.6° F 94.5%
Apr 22, 2019 03:20 PM 6.3 knots 5.6 knots 165° True 8.1° C / 46.2° F 7.3° C / 44.6° F 94.6%
Apr 22, 2019 03:10 PM 6.8 knots 6.1 knots 169° True 8.1° C / 46.2° F 7.3° C / 44.6° F 94.6%
Apr 22, 2019 03:00 PM 5.9 knots 5.5 knots 171° True 8.2° C / 46.4° F 7.3° C / 44.6° F 94.4%
Apr 22, 2019 02:50 PM 6.7 knots 5.6 knots 180° True 8.2° C / 46.4° F 7.3° C / 44.6° F 94.1%
Apr 22, 2019 02:40 PM 5.2 knots 4.3 knots 147° True 8.4° C / 46.8° F 7.3° C / 44.6° F 93.2%
Apr 22, 2019 02:30 PM 4.2 knots 3.3 knots 152° True 8.5° C / 47° F 7.3° C / 44.6° F 92.3%
Apr 22, 2019 02:20 PM 5.9 knots 3.1 knots 144° True 8.6° C / 47.2° F 7.3° C / 44.6° F 91.6%
Apr 22, 2019 02:10 PM 2 knots 1.3 knots 182° True 8.7° C / 47.4° F 7.3° C / 44.6° F 91.2%
Apr 22, 2019 02:00 PM 2.9 knots 1.7 knots 181° True 8.7° C / 47.4° F 7.3° C / 44.6° F 90.8%
Apr 22, 2019 01:50 PM 4.3 knots 2.1 knots 111° True 9.1° C / 48.2° F 7.5° C / 45° F 89.6%
Apr 22, 2019 01:40 PM 4.6 knots 2.4 knots 63° True 9.2° C / 48.4° F 7.5° C / 45° F 89%
Apr 22, 2019 01:30 PM 7.4 knots 3.7 knots 61° True 9.2° C / 48.4° F 7.3° C / 44.6° F 87.8%
Apr 22, 2019 01:20 PM 5.2 knots 3.1 knots 40° True 9.4° C / 48.8° F 7.3° C / 44.6° F 86.7%
Apr 22, 2019 01:10 PM 6 knots 3.3 knots 44° True 9.4° C / 48.8° F 7.1° C / 44.2° F 85.4%
Apr 22, 2019 01:00 PM 5.1 knots 2.5 knots 28° True 9.3° C / 48.6° F 7.1° C / 44.2° F 85.8%
Apr 22, 2019 12:50 PM 4.4 knots 2.7 knots 43° True 9.2° C / 48.4° F 7° C / 44° F 85.9%
Apr 22, 2019 12:40 PM 4.4 knots 3.3 knots 17° True 9.1° C / 48.2° F 6.7° C / 43.4° F 85.2%
Apr 22, 2019 12:30 PM 5.3 knots 4.3 knots 350° True 8.9° C / 47.8° F 6.5° C / 43° F 84.6%
Apr 22, 2019 12:20 PM 4.6 knots 3.7 knots 328° True 8.8° C / 47.6° F 6.4° C / 42.8° F 85.1%
Apr 22, 2019 12:10 PM 3.9 knots 2.9 knots 328° True 8.7° C / 47.4° F 6.5° C / 43° F 86%
Apr 22, 2019 12:00 PM 5.2 knots 4 knots 353° True 8.5° C / 47° F 6.4° C / 42.8° F 86.4%
Apr 22, 2019 11:50 AM 5.8 knots 4 knots 4° True 8.4° C / 46.8° F 6.6° C / 43.2° F 88.4%
Apr 22, 2019 11:40 AM 6.9 knots 5.6 knots 3° True 8.3° C / 46.6° F 6.8° C / 43.6° F 90.1%
Apr 22, 2019 11:30 AM 6.8 knots 6 knots 10° True 8.2° C / 46.4° F 6.8° C / 43.6° F 90.7%
Apr 22, 2019 11:20 AM 7.5 knots 5.6 knots 5° True 8.2° C / 46.4° F 6.7° C / 43.4° F 90.4%
Apr 22, 2019 11:10 AM 8.1 knots 6.3 knots 359° True 8.1° C / 46.2° F 6.6° C / 43.2° F 90%
Apr 22, 2019 11:00 AM 7.3 knots 5.8 knots 355° True 8.1° C / 46.2° F 6.4° C / 42.8° F 89.3%
Apr 22, 2019 10:50 AM 7.8 knots 6.4 knots 350° True 8.1° C / 46.2° F 6.5° C / 43° F 89.3%
Apr 22, 2019 10:40 AM 7.6 knots 5.9 knots 334° True 8.2° C / 46.4° F 6.4° C / 42.8° F 88.7%
Apr 22, 2019 10:30 AM 7.9 knots 6.7 knots 321° True 8.2° C / 46.4° F 6.3° C / 42.6° F 88%
Apr 22, 2019 10:20 AM 7.2 knots 5.5 knots 318° True 8.2° C / 46.4° F 6.2° C / 42.4° F 87.3%
Apr 22, 2019 10:10 AM 5.1 knots 3.1 knots 317° True 8.2° C / 46.4° F 6.2° C / 42.4° F 87.4%